Time;durP1;ratioP1;P1;durP2;ratioP2;P2;SDS_P1;SDS_P2;PMS_P1;PMS_P2;Temp;Humidity;BMP_temperature;BMP_pressure;BME280_temperature;BME280_humidity;BME280_pressure;Samples;Min_cycle;Max_cycle;Signal;HPM_P1;HPM_P2
2021/12/27 00:00:26;;;;;;;25.50;14.77;;;;;;;3.87;91.16;100181.19;5074650;28;20094;-63
2021/12/27 00:02:58;;;;;;;24.20;14.00;;;;;;;3.86;90.65;100182.03;5078251;28;20032;-64
2021/12/27 00:05:23;;;;;;;25.38;14.70;;;;;;;3.87;91.31;100184.69;5078128;28;20021;-65
2021/12/27 00:07:51;;;;;;;24.02;14.55;;;;;;;3.85;90.32;100188.97;5077702;28;20027;-65
2021/12/27 00:10:21;;;;;;;25.08;13.82;;;;;;;3.85;91.44;100183.75;5060376;28;20074;-64
2021/12/27 00:12:51;;;;;;;26.33;14.68;;;;;;;3.75;91.46;100161.72;5078015;28;20025;-65
2021/12/27 00:15:17;;;;;;;24.20;14.73;;;;;;;3.86;91.24;100184.66;5059819;28;20020;-65
2021/12/27 00:17:44;;;;;;;24.38;14.98;;;;;;;3.85;91.59;100185.47;5077365;28;20035;-65
2021/12/27 00:20:12;;;;;;;23.92;14.13;;;;;;;3.84;91.07;100181.97;5077567;28;20037;-67
2021/12/27 00:22:38;;;;;;;24.65;14.63;;;;;;;3.86;91.71;100180.31;5077103;28;20554;-66
2021/12/27 00:25:08;;;;;;;22.60;13.68;;;;;;;3.89;90.91;100176.88;5076795;28;20063;-65
2021/12/27 00:27:35;;;;;;;22.02;14.02;;;;;;;3.89;91.18;100174.25;5076945;28;20063;-65
2021/12/27 00:30:01;;;;;;;22.77;13.38;;;;;;;3.89;91.31;100174.25;5076817;28;20033;-65
2021/12/27 00:32:26;;;;;;;22.95;13.70;;;;;;;3.89;91.25;100164.69;5076762;28;20031;-65
2021/12/27 00:34:52;;;;;;;23.90;14.48;;;;;;;3.89;91.48;100159.47;5076689;28;20095;-65
2021/12/27 00:37:18;;;;;;;23.13;13.90;;;;;;;3.91;91.17;100167.34;5076567;28;20381;-65
2021/12/27 00:39:43;;;;;;;21.65;13.52;;;;;;;3.90;91.82;100166.47;5076859;28;20032;-66
2021/12/27 00:42:09;;;;;;;24.63;14.07;;;;;;;3.87;91.57;100158.56;5076827;28;20029;-65
2021/12/27 00:44:35;;;;;;;25.63;14.27;;;;;;;3.87;91.85;100157.66;5076407;28;20029;-64
2021/12/27 00:47:06;;;;;;;22.90;13.57;;;;;;;3.87;92.03;100155.94;5076438;28;20381;-65
2021/12/27 00:49:31;;;;;;;22.52;13.68;;;;;;;3.88;92.13;100148.97;5076353;28;20105;-64
2021/12/27 00:52:01;;;;;;;23.40;13.88;;;;;;;3.89;91.98;100150.75;5058612;28;20074;-65
2021/12/27 00:54:26;;;;;;;23.63;14.32;;;;;;;3.94;91.53;100141.28;5076612;28;20389;-64
2021/12/27 00:56:54;;;;;;;23.65;14.00;;;;;;;3.95;91.28;100138.72;5076338;28;20044;-64
2021/12/27 00:59:20;;;;;;;22.73;13.85;;;;;;;3.95;91.83;100141.34;5076432;28;20020;-65
2021/12/27 01:01:45;;;;;;;22.98;14.40;;;;;;;3.93;92.45;100137.78;5076225;28;20082;-65
2021/12/27 01:04:11;;;;;;;25.58;13.82;;;;;;;3.92;91.71;100137.75;5076241;28;20415;-66
2021/12/27 01:06:36;;;;;;;24.70;14.13;;;;;;;3.92;92.26;100132.53;5076365;28;20043;-65
2021/12/27 01:09:04;;;;;;;24.52;13.75;;;;;;;3.92;91.68;100127.31;5076217;28;20488;-64
2021/12/27 01:12:34;;;;;;;21.08;13.48;;;;;;;3.94;92.39;100120.38;5075914;28;20028;-65
2021/12/27 01:14:40;;;;;;;24.88;14.93;;;;;;;3.90;91.90;100127.28;5054342;28;20442;-65
2021/12/27 01:17:10;;;;;;;24.00;14.45;;;;;;;3.89;92.10;100137.66;5075948;28;20039;-65
2021/12/27 01:19:35;;;;;;;22.27;13.63;;;;;;;3.89;92.60;100129.84;5075643;28;20020;-65
2021/12/27 01:22:01;;;;;;;22.98;13.82;;;;;;;3.90;92.27;100129.00;5094841;28;20031;-65
2021/12/27 01:24:26;;;;;;;20.48;12.82;;;;;;;3.89;92.47;100130.72;5095411;28;20027;-65
2021/12/27 01:26:52;;;;;;;23.90;13.85;;;;;;;3.92;92.08;100128.19;5095732;28;20020;-65
2021/12/27 01:29:17;;;;;;;26.95;14.75;;;;;;;3.90;92.57;100134.25;5095679;28;20381;-66
2021/12/27 01:31:43;;;;;;;23.33;13.60;;;;;;;3.90;92.40;100129.88;5095604;28;20739;-65
2021/12/27 01:34:09;;;;;;;25.08;14.00;;;;;;;3.92;92.28;100125.56;5095686;28;20377;-65
2021/12/27 01:36:35;;;;;;;21.83;14.10;;;;;;;3.89;93.04;100117.66;5095567;28;20488;-65
2021/12/27 01:39:01;;;;;;;25.98;14.48;;;;;;;3.92;93.13;100109.88;5077371;28;20032;-65
2021/12/27 01:41:27;;;;;;;24.45;14.10;;;;;;;3.92;92.86;100111.63;5095078;28;20123;-64
2021/12/27 01:43:55;;;;;;;25.35;14.40;;;;;;;3.92;93.55;100111.63;5095148;28;20099;-64
2021/12/27 01:46:28;;;;;;;23.45;13.38;;;;;;;3.92;92.77;100112.50;5094831;28;20032;-65
2021/12/27 01:48:58;;;;;;;24.77;14.35;;;;;;;3.92;92.77;100115.13;5094998;28;20028;-65
2021/12/27 01:51:29;;;;;;;22.10;13.30;;;;;;;3.94;92.43;100115.16;5077100;28;20079;-65
2021/12/27 01:53:57;;;;;;;25.70;14.27;;;;;;;3.96;92.58;100111.75;5095191;28;20028;-65
2021/12/27 01:56:23;;;;;;;25.13;13.73;;;;;;;3.97;92.93;100102.16;5095176;28;20048;-65
2021/12/27 01:58:50;;;;;;;22.55;13.82;;;;;;;4.01;93.02;100109.25;5094963;28;20030;-65
2021/12/27 02:01:16;;;;;;;21.50;13.25;;;;;;;4.00;92.64;100113.59;5094842;28;20082;-64
2021/12/27 02:03:43;;;;;;;22.95;14.20;;;;;;;4.03;92.71;100111.91;5094957;28;20063;-65
2021/12/27 02:06:10;;;;;;;23.75;14.00;;;;;;;4.02;92.75;100105.78;5094968;28;20469;-65
2021/12/27 02:08:41;;;;;;;21.42;13.25;;;;;;;4.05;92.28;100110.22;5094863;28;20480;-65
2021/12/27 02:11:07;;;;;;;26.20;13.23;;;;;;;4.06;92.36;100106.75;5094990;28;20366;-65
2021/12/27 02:13:33;;;;;;;22.58;13.18;;;;;;;4.06;92.22;100107.63;5094680;28;20484;-65
2021/12/27 02:15:59;;;;;;;23.27;13.55;;;;;;;4.06;92.79;100105.00;5094925;28;20032;-66
2021/12/27 02:18:24;;;;;;;22.45;13.43;;;;;;;4.09;92.43;100104.22;5094761;28;20051;-65
2021/12/27 02:20:50;;;;;;;26.48;14.60;;;;;;;4.09;92.99;100105.09;5094695;28;20027;-65
2021/12/27 02:23:16;;;;;;;22.27;12.68;;;;;;;4.06;92.18;100102.38;5075914;28;20063;-65
2021/12/27 02:25:48;;;;;;;23.70;13.73;;;;;;;4.11;92.96;100107.72;5094596;28;20031;-65
2021/12/27 02:28:15;;;;;;;22.23;13.18;;;;;;;4.06;93.23;100099.78;5094480;28;20052;-65
2021/12/27 02:30:43;;;;;;;23.63;13.88;;;;;;;4.09;92.56;100105.09;5094429;28;20082;-65
2021/12/27 02:33:10;;;;;;;22.27;13.82;;;;;;;4.12;93.08;100101.69;5094485;28;20461;-65
2021/12/27 02:35:41;;;;;;;22.13;13.15;;;;;;;4.11;92.60;100100.81;5094456;28;20024;-66
2021/12/27 02:38:14;;;;;;;20.95;13.63;;;;;;;4.11;93.06;100092.97;5094412;28;20024;-64
2021/12/27 02:40:40;;;;;;;24.15;13.82;;;;;;;4.08;92.80;100092.88;5094279;28;20036;-64
2021/12/27 02:43:14;;;;;;;21.27;13.13;;;;;;;4.10;93.71;100109.47;5094511;28;20089;-64
2021/12/27 02:45:51;;;;;;;24.25;13.57;;;;;;;4.10;93.40;100100.75;5094171;28;20027;-65
2021/12/27 02:48:21;;;;;;;23.40;14.00;;;;;;;4.12;92.94;100099.94;5094193;28;20500;-65
2021/12/27 02:50:47;;;;;;;25.95;15.00;;;;;;;4.11;93.77;100099.88;5094155;28;20024;-65
2021/12/27 02:53:14;;;;;;;23.45;14.35;;;;;;;4.08;93.31;100099.84;5094152;28;20024;-65
2021/12/27 02:55:40;;;;;;;22.55;14.10;;;;;;;4.09;93.42;100098.97;5094042;28;20035;-65
2021/12/27 02:58:06;;;;;;;24.63;14.10;;;;;;;4.09;93.64;100092.03;5093763;28;20040;-64
2021/12/27 03:00:37;;;;;;;23.80;14.00;;;;;;;4.09;93.74;100084.19;5094016;28;20023;-65
2021/12/27 03:03:02;;;;;;;27.27;14.35;;;;;;;4.10;93.51;100088.53;5093911;28;20115;-64
2021/12/27 03:05:29;;;;;;;32.83;14.73;;;;;;;4.13;93.77;100087.75;5093956;28;20055;-65
2021/12/27 03:07:56;;;;;;;23.27;14.23;;;;;;;4.12;94.07;100083.38;5093714;28;20083;-64
2021/12/27 03:10:24;;;;;;;23.00;13.98;;;;;;;4.16;93.97;100088.72;5093699;28;20036;-63
2021/12/27 03:12:51;;;;;;;24.10;13.77;;;;;;;4.18;93.64;100070.44;5093783;28;20028;-64
2021/12/27 03:15:26;;;;;;;24.88;14.55;;;;;;;4.17;93.65;100076.53;5093742;28;20028;-65
2021/12/27 03:17:54;;;;;;;25.35;14.57;;;;;;;4.16;93.92;100072.16;5093836;28;20038;-65
2021/12/27 03:20:23;;;;;;;24.90;14.93;;;;;;;4.16;93.84;100077.38;5093702;28;20030;-64
2021/12/27 03:22:49;;;;;;;23.63;13.40;;;;;;;4.17;94.02;100073.91;5093367;28;20028;-64
2021/12/27 03:25:17;;;;;;;24.83;15.20;;;;;;;4.19;94.21;100067.84;5093522;28;20447;-64
2021/12/27 03:27:43;;;;;;;23.55;13.20;;;;;;;4.21;93.33;100071.41;5093622;28;20035;-65
2021/12/27 03:30:13;;;;;;;28.40;14.43;;;;;;;4.20;93.58;100066.16;5093709;28;20024;-65
2021/12/27 03:32:39;;;;;;;24.63;13.63;;;;;;;4.24;94.12;100074.09;5093529;28;20055;-64
2021/12/27 03:35:13;;;;;;;28.13;14.52;;;;;;;4.24;93.67;100074.09;5092636;28;20070;-67
2021/12/27 03:37:41;;;;;;;23.48;14.07;;;;;;;4.28;93.28;100069.78;5093239;28;20469;-63
2021/12/27 03:40:09;;;;;;;25.40;14.95;;;;;;;4.30;93.47;100067.25;5093250;28;20055;-64
2021/12/27 03:42:36;;;;;;;23.17;13.93;;;;;;;4.33;93.50;100062.97;5093351;28;20039;-65
2021/12/27 03:45:03;;;;;;;26.35;14.40;;;;;;;4.35;94.50;100066.50;5093420;28;20107;-65
2021/12/27 03:47:29;;;;;;;24.40;14.18;;;;;;;4.33;93.43;100060.34;5093154;28;20073;-64
2021/12/27 03:49:54;;;;;;;24.50;13.65;;;;;;;4.36;94.24;100067.38;5093272;28;20455;-64
2021/12/27 03:52:19;;;;;;;23.67;13.55;;;;;;;4.37;93.72;100056.06;5092995;28;20021;-65
2021/12/27 03:54:45;;;;;;;23.58;13.80;;;;;;;4.39;94.22;100062.22;5075113;28;20028;-64
2021/12/27 03:57:10;;;;;;;23.73;12.98;;;;;;;4.38;93.89;100052.59;5093091;28;20141;-64
2021/12/27 04:02:12;;;;;;;21.30;13.13;;;;;;;4.40;94.14;100049.16;5092965;28;20040;-64
2021/12/27 04:04:38;;;;;;;21.95;13.82;;;;;;;4.41;94.47;100034.34;5074890;28;20025;-65
2021/12/27 04:07:04;;;;;;;22.27;13.52;;;;;;;4.41;94.65;100036.97;5093099;28;20031;-64
2021/12/27 04:09:30;;;;;;;22.83;13.93;;;;;;;4.37;94.02;100033.44;5093260;28;20066;-64
2021/12/27 04:11:55;;;;;;;24.30;14.57;;;;;;;4.40;94.55;100033.47;5093119;28;20024;-65
2021/12/27 04:14:21;;;;;;;24.27;14.15;;;;;;;4.42;94.05;100036.13;5093066;28;20496;-65
2021/12/27 04:16:47;;;;;;;24.20;14.50;;;;;;;4.40;94.22;100023.00;5092905;28;20024;-64
2021/12/27 04:19:13;;;;;;;25.65;13.45;;;;;;;4.43;94.44;100025.69;5093044;28;20148;-65
2021/12/27 04:21:39;;;;;;;27.48;15.10;;;;;;;4.43;94.37;100020.47;5092751;28;20039;-65
2021/12/27 04:24:05;;;;;;;25.70;14.02;;;;;;;4.44;94.59;100023.97;5093122;28;20028;-64
2021/12/27 04:26:30;;;;;;;23.65;13.98;;;;;;;4.37;94.09;100002.03;5093173;28;20106;-66
2021/12/27 04:28:55;;;;;;;20.65;13.43;;;;;;;4.46;94.48;100014.44;5093001;28;20051;-65
2021/12/27 04:31:21;;;;;;;23.42;13.73;;;;;;;4.46;94.46;100019.66;5092905;28;20038;-64
2021/12/27 04:33:47;;;;;;;24.73;14.05;;;;;;;4.45;95.11;100018.78;5092933;28;20469;-64
2021/12/27 04:36:12;;;;;;;25.08;14.73;;;;;;;4.43;94.56;100012.63;5092662;28;20024;-65
2021/12/27 04:38:38;;;;;;;23.50;13.63;;;;;;;4.46;94.82;100006.59;5092906;28;20032;-64
2021/12/27 04:41:05;;;;;;;23.60;13.25;;;;;;;4.48;94.41;100008.38;5092727;28;20027;-64
2021/12/27 04:43:40;;;;;;;25.38;14.00;;;;;;;4.50;95.15;100003.19;5092782;28;20101;-64
2021/12/27 04:46:06;;;;;;;21.88;13.40;;;;;;;4.53;94.75;100004.09;5092833;28;20039;-64
2021/12/27 04:48:32;;;;;;;23.45;14.25;;;;;;;4.55;94.89;99987.59;5096550;28;20028;-65
2021/12/27 04:50:58;;;;;;;24.80;14.25;;;;;;;4.54;94.46;99999.78;5096266;28;20035;-65
2021/12/27 04:53:23;;;;;;;21.67;13.07;;;;;;;4.55;95.19;99993.69;5096448;28;20024;-65
2021/12/27 04:55:49;;;;;;;24.02;14.93;;;;;;;4.59;94.56;100008.63;5096473;28;20016;-64
2021/12/27 04:58:17;;;;;;;21.63;13.73;;;;;;;4.59;94.83;99998.16;5096217;28;20104;-64
2021/12/27 05:00:44;;;;;;;22.98;13.57;;;;;;;4.61;94.12;100004.28;5096455;28;20064;-64
2021/12/27 05:03:10;;;;;;;21.65;13.82;;;;;;;4.63;94.40;99993.88;5096291;28;20107;-64
2021/12/27 05:05:37;;;;;;;25.05;14.15;;;;;;;4.61;95.10;99991.19;5096269;28;20025;-64
2021/12/27 05:08:03;;;;;;;22.05;13.50;;;;;;;4.67;94.89;99987.84;5096097;28;20032;-64
2021/12/27 05:10:30;;;;;;;20.88;13.55;;;;;;;4.69;94.28;99989.63;5077947;28;20019;-64
2021/12/27 05:12:56;;;;;;;23.88;13.20;;;;;;;4.70;95.03;99994.00;5096046;28;20043;-64
2021/12/27 05:15:21;;;;;;;21.63;13.02;;;;;;;4.73;94.59;99991.44;5096212;28;20024;-64
2021/12/27 05:17:48;;;;;;;23.08;14.38;;;;;;;4.73;94.99;99988.84;5095960;28;20051;-64
2021/12/27 05:20:13;;;;;;;20.42;13.27;;;;;;;4.74;94.47;99984.47;5095929;28;20469;-65
2021/12/27 05:22:39;;;;;;;21.15;12.43;;;;;;;4.74;94.58;99984.47;5095695;28;20040;-65
2021/12/27 05:25:06;;;;;;;20.20;12.18;;;;;;;4.75;94.01;99986.25;5096073;28;20027;-64
2021/12/27 05:27:32;;;;;;;20.30;13.25;;;;;;;4.73;94.43;99985.34;5095791;28;20024;-64
2021/12/27 05:29:57;;;;;;;20.90;13.07;;;;;;;4.74;95.37;99982.75;5095806;28;20544;-64
2021/12/27 05:32:23;;;;;;;20.58;13.23;;;;;;;4.73;95.00;99978.38;5095636;28;20020;-64
2021/12/27 05:34:48;;;;;;;20.17;12.93;;;;;;;4.77;94.70;99976.69;5095727;28;20081;-65
2021/12/27 05:37:14;;;;;;;22.23;14.55;;;;;;;4.75;95.99;99988.84;5095445;28;20148;-64
2021/12/27 05:39:39;;;;;;;24.80;15.05;;;;;;;4.74;95.44;99976.63;5095648;28;20099;-64
2021/12/27 05:42:06;;;;;;;19.13;12.38;;;;;;;4.74;95.36;99969.66;5095363;28;20439;-64
2021/12/27 05:44:31;;;;;;;26.35;14.80;;;;;;;4.71;95.27;99960.84;5095081;28;20411;-64
2021/12/27 05:46:57;;;;;;;22.90;13.80;;;;;;;4.75;95.32;99973.16;5095363;28;20070;-64
2021/12/27 05:49:23;;;;;;;21.73;13.30;;;;;;;4.79;95.65;99974.97;5095384;28;20031;-64
2021/12/27 05:51:49;;;;;;;22.15;12.95;;;;;;;4.80;95.29;99975.88;5095086;28;20028;-66
2021/12/27 05:54:15;;;;;;;21.80;12.98;;;;;;;4.85;95.64;99984.72;5095457;28;20028;-64
2021/12/27 05:56:46;;;;;;;21.67;12.75;;;;;;;4.84;95.52;99969.84;5095289;28;20229;-65
2021/12/27 05:59:16;;;;;;;22.20;12.93;;;;;;;4.87;95.50;99976.03;5094302;28;20100;-64
2021/12/27 06:01:43;;;;;;;21.60;13.30;;;;;;;4.90;96.04;99980.44;5095034;28;20023;-64
2021/12/27 06:04:08;;;;;;;22.27;13.20;;;;;;;4.89;95.96;99987.41;5095078;28;20477;-64
2021/12/27 06:06:34;;;;;;;25.20;14.18;;;;;;;4.89;95.98;99983.94;5094834;28;20032;-64
2021/12/27 06:09:00;;;;;;;22.95;14.00;;;;;;;4.87;95.45;99980.38;5095059;28;20031;-64
2021/12/27 06:11:25;;;;;;;22.58;13.48;;;;;;;4.91;96.26;99990.94;5094994;28;20020;-64
2021/12/27 06:13:50;;;;;;;24.77;13.07;;;;;;;4.87;96.40;99976.03;5094926;28;20024;-66
2021/12/27 06:16:16;;;;;;;19.38;13.13;;;;;;;4.91;95.61;99976.97;5094909;28;20022;-64
2021/12/27 06:18:41;;;;;;;19.98;12.32;;;;;;;4.92;96.37;99973.50;5094818;28;20024;-65
2021/12/27 06:21:07;;;;;;;21.48;12.95;;;;;;;4.96;95.55;99984.03;5094641;28;20028;-65
2021/12/27 06:23:33;;;;;;;22.08;13.13;;;;;;;4.97;95.99;99980.59;5076841;28;20032;-65
2021/12/27 06:25:58;;;;;;;22.63;13.40;;;;;;;5.01;96.16;99978.91;5094796;28;20492;-64
2021/12/27 06:28:24;;;;;;;21.98;12.93;;;;;;;5.02;95.62;99975.44;5094484;28;20024;-64
2021/12/27 06:30:50;;;;;;;26.60;13.95;;;;;;;5.03;95.72;99978.09;5094530;28;20468;-64
2021/12/27 06:33:16;;;;;;;21.27;12.55;;;;;;;5.03;96.10;99979.81;5076353;28;20473;-64
2021/12/27 06:35:42;;;;;;;21.20;14.20;;;;;;;5.03;96.09;99974.59;5094508;28;20028;-64
2021/12/27 06:38:07;;;;;;;22.40;13.20;;;;;;;5.06;95.60;99972.03;5094418;28;20078;-64
2021/12/27 06:40:33;;;;;;;23.77;13.18;;;;;;;5.06;95.39;99958.06;5094463;28;20040;-64
2021/12/27 06:43:00;;;;;;;19.90;12.88;;;;;;;5.08;96.44;99967.69;5094199;28;20028;-65
2021/12/27 06:45:26;;;;;;;21.63;12.98;;;;;;;5.08;95.68;99970.31;5094099;28;20027;-64
2021/12/27 06:47:52;;;;;;;22.83;14.38;;;;;;;5.09;95.82;99971.19;5093651;28;20048;-64
2021/12/27 06:50:17;;;;;;;23.05;13.15;;;;;;;5.10;95.90;99960.78;5094165;28;20481;-64
2021/12/27 06:52:44;;;;;;;20.48;12.57;;;;;;;5.11;95.69;99970.38;5093911;28;20519;-64
2021/12/27 06:55:10;;;;;;;22.33;12.18;;;;;;;5.12;95.89;99963.41;5094134;28;20489;-64
2021/12/27 06:57:36;;;;;;;20.13;12.15;;;;;;;5.13;96.07;99958.19;5094069;28;20040;-64
2021/12/27 07:00:08;;;;;;;22.50;13.68;;;;;;;5.13;95.95;99952.94;5094304;28;20031;-65
2021/12/27 07:02:34;;;;;;;23.20;14.18;;;;;;;5.14;95.97;99954.75;5093854;28;20103;-65
2021/12/27 07:04:59;;;;;;;23.67;13.48;;;;;;;5.15;95.87;99950.38;5093980;28;20027;-65
2021/12/27 07:07:24;;;;;;;23.90;14.32;;;;;;;5.13;96.23;99938.97;5093996;28;20028;-64
2021/12/27 07:09:50;;;;;;;22.33;14.05;;;;;;;5.22;96.22;99944.38;5093755;28;20043;-64
2021/12/27 07:12:22;;;;;;;19.83;12.88;;;;;;;5.24;96.11;99942.69;5093880;28;20412;-65
2021/12/27 07:14:48;;;;;;;21.63;12.75;;;;;;;5.25;95.63;99936.56;5093896;28;20165;-64
2021/12/27 07:17:16;;;;;;;19.25;12.20;;;;;;;5.25;95.50;99934.84;5093570;28;20451;-64
2021/12/27 07:19:41;;;;;;;20.10;11.95;;;;;;;5.28;95.92;99932.28;5093480;28;20481;-65
2021/12/27 07:22:07;;;;;;;19.40;11.27;;;;;;;5.30;95.18;99934.03;5093452;28;20024;-67
2021/12/27 07:24:33;;;;;;;18.73;11.82;;;;;;;5.30;95.14;99937.53;5093575;28;20028;-65
2021/12/27 07:26:59;;;;;;;18.80;11.90;;;;;;;5.24;95.54;99927.84;5093530;28;20043;-65
2021/12/27 07:29:25;;;;;;;21.25;11.50;;;;;;;5.29;95.17;99938.41;5093605;28;20085;-65
2021/12/27 07:31:51;;;;;;;22.67;11.98;;;;;;;5.27;95.33;99930.53;5093423;28;20016;-65
2021/12/27 07:34:24;;;;;;;19.15;12.55;;;;;;;5.27;95.48;99932.25;5093280;28;20473;-65
2021/12/27 07:36:49;;;;;;;114.70;13.88;;;;;;;5.25;95.44;99931.34;5093015;28;20385;-65
2021/12/27 07:39:15;;;;;;;18.40;11.45;;;;;;;5.23;95.59;99930.44;5092661;28;20038;-65
2021/12/27 07:41:40;;;;;;;20.50;11.38;;;;;;;5.20;95.37;99927.75;5092791;28;20020;-65
2021/12/27 07:44:07;;;;;;;18.45;11.77;;;;;;;5.18;95.56;99927.75;5092874;28;20035;-65
2021/12/27 07:46:35;;;;;;;16.65;11.30;;;;;;;5.17;95.10;99927.69;5092710;28;20052;-65
2021/12/27 07:49:01;;;;;;;17.02;10.57;;;;;;;5.16;94.99;99937.31;5092997;28;20071;-65
2021/12/27 07:51:27;;;;;;;18.48;11.65;;;;;;;5.14;95.57;99932.88;5092431;28;20032;-65
2021/12/27 07:53:52;;;;;;;19.05;11.07;;;;;;;5.12;95.34;99927.63;5092508;28;20031;-64
2021/12/27 07:56:18;;;;;;;20.17;11.57;;;;;;;5.13;95.81;99928.50;5092450;28;21549;-65
2021/12/27 07:58:43;;;;;;;22.42;11.85;;;;;;;5.12;95.61;99934.59;5092771;28;20016;-65
2021/12/27 08:01:09;;;;;;;18.50;11.07;;;;;;;5.14;95.88;99935.50;5092409;28;20484;-64
2021/12/27 08:03:34;;;;;;;19.75;10.95;;;;;;;5.15;95.34;99938.16;5092655;28;20384;-65
2021/12/27 08:06:00;;;;;;;20.27;11.52;;;;;;;5.17;95.79;99940.78;5074603;28;20039;-64
2021/12/27 08:08:25;;;;;;;19.27;11.02;;;;;;;5.17;95.61;99944.28;5092153;28;20020;-64
2021/12/27 08:10:50;;;;;;;19.48;10.63;;;;;;;5.19;95.08;99945.22;5092564;28;20032;-65
2021/12/27 08:13:16;;;;;;;17.55;10.68;;;;;;;5.23;95.61;99935.69;5092527;28;20039;-65
2021/12/27 08:15:42;;;;;;;20.65;11.32;;;;;;;5.24;95.11;99942.69;5092794;28;20020;-65
2021/12/27 08:18:10;;;;;;;16.08;10.38;;;;;;;5.24;94.83;99940.94;5092399;28;20490;-65
2021/12/27 08:20:35;;;;;;;32.13;12.50;;;;;;;5.27;95.23;99946.25;5074443;28;20499;-65
2021/12/27 08:23:01;;;;;;;17.75;10.55;;;;;;;5.30;95.17;99940.16;5095327;28;20110;-65
2021/12/27 08:25:26;;;;;;;18.00;10.38;;;;;;;5.27;94.53;99938.38;5078587;28;20031;-65
2021/12/27 08:27:56;;;;;;;29.60;13.00;;;;;;;5.30;95.40;99952.38;5096559;28;20040;-65
2021/12/27 08:30:21;;;;;;;19.70;11.15;;;;;;;5.26;94.98;99946.19;5096299;28;20552;-65
2021/12/27 08:32:47;;;;;;;18.33;11.23;;;;;;;5.27;95.75;99948.84;5096365;28;20028;-65
2021/12/27 08:35:14;;;;;;;16.73;10.73;;;;;;;5.31;95.56;99951.50;5096487;28;20400;-65
2021/12/27 08:37:43;;;;;;;20.75;10.68;;;;;;;5.33;95.22;99950.69;5096015;28;20024;-65
2021/12/27 08:40:10;;;;;;;17.25;10.90;;;;;;;5.38;95.01;99942.91;5096141;28;20449;-65
2021/12/27 08:42:35;;;;;;;24.50;10.85;;;;;;;5.40;95.32;99938.59;5096397;28;20078;-65
2021/12/27 08:45:03;;;;;;;19.17;10.98;;;;;;;5.45;95.37;99934.31;5096131;28;20043;-64
2021/12/27 08:47:29;;;;;;;15.40;10.38;;;;;;;5.48;95.14;99927.38;5096164;28;20075;-65
2021/12/27 08:49:55;;;;;;;24.75;10.80;;;;;;;5.53;94.72;99924.84;5077756;28;20469;-65
2021/12/27 08:52:21;;;;;;;16.73;10.63;;;;;;;5.51;94.33;99916.06;5095803;28;20028;-65
2021/12/27 08:54:46;;;;;;;16.88;10.88;;;;;;;5.57;94.43;99923.13;5095899;28;20070;-65
2021/12/27 08:57:11;;;;;;;17.35;10.52;;;;;;;5.64;94.65;99917.13;5095427;28;20048;-65
2021/12/27 08:59:37;;;;;;;16.67;9.82;;;;;;;5.70;94.57;99912.00;5096165;28;20032;-64
2021/12/27 09:02:04;;;;;;;16.40;10.07;;;;;;;5.76;94.35;99905.09;5095759;28;20032;-65
2021/12/27 09:04:32;;;;;;;20.95;12.55;;;;;;;5.97;95.45;99890.56;5095827;28;20388;-65
2021/12/27 09:06:58;;;;;;;17.40;10.95;;;;;;;6.19;94.52;99895.25;5077216;28;20115;-65
2021/12/27 09:09:23;;;;;;;16.38;10.55;;;;;;;6.44;93.70;99893.81;5095901;28;20020;-65
2021/12/27 09:11:49;;;;;;;16.35;10.32;;;;;;;6.72;92.25;99889.78;5095565;28;20538;-65
2021/12/27 09:14:14;;;;;;;15.05;9.95;;;;;;;6.98;91.84;99891.75;5095648;28;20020;-66
2021/12/27 09:16:40;;;;;;;15.00;9.35;;;;;;;7.06;90.45;99894.47;5095670;28;20024;-65
2021/12/27 09:19:06;;;;;;;14.80;9.35;;;;;;;7.11;89.44;99898.91;5095537;28;20032;-65
2021/12/27 09:21:32;;;;;;;11.48;8.10;;;;;;;7.03;88.73;99900.59;5095221;28;20024;-66
2021/12/27 09:23:57;;;;;;;12.73;8.38;;;;;;;6.91;88.09;99903.97;5095222;28;20107;-66
2021/12/27 09:26:23;;;;;;;15.13;8.88;;;;;;;6.76;88.29;99898.53;5095501;28;20365;-66
2021/12/27 09:28:48;;;;;;;13.00;8.88;;;;;;;6.65;88.78;99898.44;5095121;28;20028;-66
2021/12/27 09:31:14;;;;;;;13.18;8.75;;;;;;;6.62;89.86;99902.75;5095279;28;20068;-66
2021/12/27 09:33:40;;;;;;;14.57;9.32;;;;;;;6.58;89.57;99904.47;5093761;28;20489;-65
2021/12/27 09:36:05;;;;;;;14.52;9.27;;;;;;;6.58;89.37;99916.72;5095224;28;20030;-66
2021/12/27 09:38:32;;;;;;;15.65;9.57;;;;;;;6.55;89.61;99908.78;5077096;28;20016;-66
2021/12/27 09:40:57;;;;;;;13.75;9.65;;;;;;;6.48;89.59;99902.59;5094867;28;20035;-64
2021/12/27 09:43:24;;;;;;;15.65;9.85;;;;;;;6.47;90.21;99901.72;5095120;28;20024;-65
2021/12/27 09:45:50;;;;;;;14.50;9.30;;;;;;;6.45;90.75;99890.31;5094792;28;20478;-66
2021/12/27 09:48:16;;;;;;;15.48;9.20;;;;;;;6.46;90.29;99894.69;5095183;28;20081;-65
2021/12/27 09:50:45;;;;;;;12.50;8.52;;;;;;;6.48;89.93;99892.97;5094857;28;20030;-64
2021/12/27 09:53:11;;;;;;;13.55;8.98;;;;;;;6.49;89.52;99878.13;5094972;28;20020;-65
2021/12/27 09:55:37;;;;;;;14.30;9.23;;;;;;;6.53;89.67;99883.41;5094676;28;20165;-64
2021/12/27 09:58:03;;;;;;;14.95;9.00;;;;;;;6.50;90.01;99877.25;5094487;28;20199;-64
2021/12/27 10:00:29;;;;;;;14.75;8.80;;;;;;;6.50;89.62;99885.13;5094622;28;20032;-66
2021/12/27 10:02:57;;;;;;;12.95;8.65;;;;;;;6.47;90.05;99878.09;5094661;28;20548;-65
2021/12/27 10:05:26;;;;;;;13.20;8.75;;;;;;;6.45;89.61;99876.31;5094525;28;20495;-64
2021/12/27 10:07:57;;;;;;;15.82;9.60;;;;;;;6.45;90.13;99869.31;5094491;28;20059;-65
2021/12/27 10:10:23;;;;;;;15.20;9.75;;;;;;;6.49;90.21;99872.88;5076376;28;20409;-65
2021/12/27 10:12:49;;;;;;;15.68;10.23;;;;;;;6.55;90.10;99872.91;5094367;28;20065;-65
2021/12/27 10:15:18;;;;;;;18.85;10.65;;;;;;;6.62;90.27;99866.88;5076452;28;20157;-65
2021/12/27 10:17:44;;;;;;;20.55;11.27;;;;;;;6.82;89.83;99853.97;5094262;28;20481;-64
2021/12/27 10:20:20;;;;;;;17.55;11.57;;;;;;;6.96;89.05;99838.34;5094595;28;20100;-65
2021/12/27 10:22:49;;;;;;;18.63;11.98;;;;;;;6.96;87.94;99840.97;5093989;28;20101;-67
2021/12/27 10:25:16;;;;;;;19.15;11.90;;;;;;;7.02;88.08;99841.94;5094302;28;20028;-67
2021/12/27 10:27:42;;;;;;;20.27;12.43;;;;;;;7.08;87.90;99843.72;5094405;28;20366;-67
2021/12/27 10:30:20;;;;;;;17.52;12.40;;;;;;;7.10;87.52;99856.84;5094153;28;20031;-66
2021/12/27 10:33:19;;;;;;;18.08;11.82;;;;;;;7.06;87.13;99868.19;5075632;28;20052;-64
2021/12/27 10:35:53;;;;;;;20.02;12.07;;;;;;;7.00;87.77;99869.03;5094311;28;20389;-66
2021/12/27 10:38:20;;;;;;;17.77;11.98;;;;;;;6.97;88.09;99863.75;5093817;28;20035;-66
2021/12/27 10:40:55;;;;;;;21.38;13.30;;;;;;;6.96;88.03;99846.22;5094088;28;20039;-65
2021/12/27 10:43:50;;;;;;;17.00;12.25;;;;;;;6.96;88.44;99849.72;5094034;28;20089;-65
2021/12/27 10:46:18;;;;;;;18.58;12.75;;;;;;;6.95;88.04;99854.97;4975487;28;20125;-65
2021/12/27 10:48:59;;;;;;;20.95;12.30;;;;;;;6.96;88.70;99843.59;4992308;28;20038;-65
2021/12/27 10:51:28;;;;;;;19.88;12.52;;;;;;;7.00;88.58;99837.50;4976274;28;20053;-66
2021/12/27 10:53:56;;;;;;;23.67;14.32;;;;;;;7.05;88.56;99846.31;4992120;28;20063;-63
2021/12/27 10:56:24;;;;;;;19.17;12.63;;;;;;;7.14;88.94;99835.00;4991621;28;20034;-63
2021/12/27 10:58:51;;;;;;;18.08;11.43;;;;;;;7.20;88.62;99845.56;4992019;28;20046;-65
2021/12/27 11:01:19;;;;;;;17.75;11.45;;;;;;;7.24;88.00;99836.84;4991625;28;20113;-63
2021/12/27 11:03:58;;;;;;;16.35;11.05;;;;;;;7.37;87.77;99840.44;4991827;28;20042;-63
2021/12/27 11:06:26;;;;;;;16.00;10.70;;;;;;;7.39;87.49;99829.06;4991436;28;20038;-62
2021/12/27 11:08:53;;;;;;;15.98;10.63;;;;;;;7.42;87.82;99836.09;4991465;28;20061;-65
2021/12/27 11:11:21;;;;;;;13.88;9.15;;;;;;;7.41;86.54;99834.31;4991671;28;20042;-64
2021/12/27 11:13:54;;;;;;;16.83;9.88;;;;;;;7.40;88.38;99830.81;4991843;28;20113;-63
2021/12/27 11:16:20;;;;;;;15.95;10.68;;;;;;;7.37;86.83;99837.81;4991391;28;20044;-64
2021/12/27 11:18:46;;;;;;;13.82;9.40;;;;;;;7.36;87.92;99843.91;4991649;28;20034;-64
2021/12/27 11:21:13;;;;;;;14.10;9.50;;;;;;;7.33;87.80;99830.78;4991298;28;20502;-64
2021/12/27 11:23:41;;;;;;;13.50;9.63;;;;;;;7.28;87.97;99842.13;5062822;28;20032;-65